OOCL Oakland — 3EKJ6 — position and weather

sailwx.info

Track history (hours):
 
Tides and Currents Weather Stations Pressure Air Temp Water Temp Dewpoint Dewpoint Depression Visibility Wind Speed Wind Dir Waves Ship Positions

OOCL Oakland

Last reported at 2017-Jun-27 19:51 UTC. Time now 2017-Jun-28 05:37 UTC.
Position S 38°05' E 144°55'.

Length 280 m; draft 11.6 m.

Type: Ship. MMSI: 372703235.

Date/timePositionNaut miles runAvg speedWind from/ knotsBaromVisibWave heightAir tempDewpointWater temp
2017-Jun-27 19:51S 38°05' E 144°55'617.9
2017-Jun-27 19:30S 37°59' E 144°55'612.7
2017-Jun-27 19:00S 37°53' E 144°56'4 6.7
2017-Jun-27 18:28S 37°49' E 144°55'1 0.7
2017-Jun-27 17:37S 37°49' E 144°55'0 0.0
2017-Jun-27 17:13S 37°49' E 144°55'0 0.1
2017-Jun-27 16:49S 37°49' E 144°55'0 0.0
2017-Jun-27 16:19S 37°49' E 144°55'0 0.0
2017-Jun-26 17:31S 37°49' E 144°55'0 0.0
2017-Jun-26 17:28S 37°49' E 144°55'0 0.0
2017-Jun-26 16:58S 37°49' E 144°55'0 0.0
2017-Jun-26 14:52S 37°49' E 144°55'0 0.0
2017-Jun-26 11:43S 37°49' E 144°55'9 1.0
2017-Jun-26 02:49S 37°57' E 144°55'179 7.9
2017-Jun-25 04:01S 38°24' E 148°41'012.2
2017-Jun-25 03:59S 38°24' E 148°41'713.5
2017-Jun-25 03:30S 38°21' E 148°48'913.5
2017-Jun-25 02:51S 38°16' E 148°57'713.0
2017-Jun-25 02:21S 38°12' E 149°04'513.2
2017-Jun-25 02:00S 38°10' E 149°09'2413.3
2017-Jun-25 00:12S 37°56' E 149°34'312.7
2017-Jun-24 23:59S 37°55' E 149°37'  
2017-Jun-21 19:02S 38°23' E 149°03'121.1
2017-Jun-21 19:00S 38°23' E 149°02'1019.3
2017-Jun-21 18:29S 38°29' E 148°52'1018.8
2017-Jun-21 17:58S 38°34' E 148°41'  
Track history (hours):
 
Tides and Currents Weather Stations Pressure Air Temp Water Temp Dewpoint Dewpoint Depression Visibility Wind Speed Wind Dir Waves Ship Positions

OOCL Oakland

Last reported at 2017-Jun-27 19:51 UTC. Time now 2017-Jun-28 05:37 UTC.
Position S 38°05' E 144°55'.

Length 280 m; draft 11.6 m.

Type: Ship. MMSI: 372703235.

Date/timePositionNaut miles runAvg speedWind from/ knotsBaromVisibWave heightAir tempDewpointWater temp
2017-Jun-27 19:51S 38°05' E 144°55'617.9
2017-Jun-27 19:30S 37°59' E 144°55'612.7
2017-Jun-27 19:00S 37°53' E 144°56'4 6.7
2017-Jun-27 18:28S 37°49' E 144°55'1 0.7
2017-Jun-27 17:37S 37°49' E 144°55'0 0.0
2017-Jun-27 17:13S 37°49' E 144°55'0 0.1
2017-Jun-27 16:49S 37°49' E 144°55'0 0.0
2017-Jun-27 16:19S 37°49' E 144°55'0 0.0
2017-Jun-26 17:31S 37°49' E 144°55'0 0.0
2017-Jun-26 17:28S 37°49' E 144°55'0 0.0
2017-Jun-26 16:58S 37°49' E 144°55'0 0.0
2017-Jun-26 14:52S 37°49' E 144°55'0 0.0
2017-Jun-26 11:43S 37°49' E 144°55'9 1.0
2017-Jun-26 02:49S 37°57' E 144°55'179 7.9
2017-Jun-25 04:01S 38°24' E 148°41'012.2
2017-Jun-25 03:59S 38°24' E 148°41'713.5
2017-Jun-25 03:30S 38°21' E 148°48'913.5
2017-Jun-25 02:51S 38°16' E 148°57'713.0
2017-Jun-25 02:21S 38°12' E 149°04'513.2
2017-Jun-25 02:00S 38°10' E 149°09'2413.3
2017-Jun-25 00:12S 37°56' E 149°34'312.7
2017-Jun-24 23:59S 37°55' E 149°37'  
2017-Jun-21 19:02S 38°23' E 149°03'121.1
2017-Jun-21 19:00S 38°23' E 149°02'1019.3
2017-Jun-21 18:29S 38°29' E 148°52'1018.8
2017-Jun-21 17:58S 38°34' E 148°41'  

Dump ship's entire track history